createdAt,value
2022-09-11T00:00:53.576Z,2.40
2022-09-11T00:03:15.139Z,4.38
2022-09-11T00:05:43.471Z,2.50
2022-09-11T00:08:06.331Z,2.70
2022-09-11T00:10:28.183Z,4.00
2022-09-11T00:12:50.052Z,2.77
2022-09-11T00:15:11.470Z,3.37
2022-09-11T00:17:33.109Z,3.30
2022-09-11T00:19:54.543Z,2.97
2022-09-11T00:22:15.962Z,3.58
2022-09-11T00:24:37.540Z,3.63
2022-09-11T00:26:59.005Z,5.07
2022-09-11T00:29:20.417Z,4.00
2022-09-11T00:31:41.950Z,4.55
2022-09-11T00:34:03.441Z,3.72
2022-09-11T00:36:29.015Z,3.20
2022-09-11T00:38:51.444Z,3.42
2022-09-11T00:41:15.655Z,3.30
2022-09-11T00:44:04.682Z,4.13
2022-09-11T00:46:34.456Z,4.23
2022-09-11T00:48:57.274Z,6.47
2022-09-11T00:51:25.998Z,4.77
2022-09-11T00:53:49.544Z,4.57
2022-09-11T00:56:11.261Z,4.50
2022-09-11T00:58:38.248Z,6.80
2022-09-11T01:01:00.904Z,6.47
2022-09-11T01:03:24.379Z,7.90
2022-09-11T01:05:46.388Z,5.57
2022-09-11T01:08:08.115Z,7.40
2022-09-11T01:11:06.881Z,8.60
2022-09-11T01:13:59.313Z,7.50
2022-09-11T01:16:59.880Z,4.87
2022-09-11T01:19:46.592Z,16.30
2022-09-11T01:22:18.659Z,16.57
2022-09-11T01:25:12.280Z,7.00
2022-09-11T01:27:42.222Z,20.43
2022-09-11T01:30:11.856Z,7.20
2022-09-11T01:32:52.363Z,6.93
2022-09-11T01:35:20.800Z,6.70
2022-09-11T01:37:51.629Z,7.17
2022-09-11T01:40:22.174Z,6.73
2022-09-11T01:42:46.039Z,6.40
2022-09-11T01:45:07.958Z,8.73
2022-09-11T01:47:33.173Z,8.17
2022-09-11T01:50:03.073Z,8.23
2022-09-11T01:52:29.299Z,7.97
2022-09-11T01:55:16.200Z,5.90
2022-09-11T01:57:44.099Z,6.83
2022-09-11T02:00:22.195Z,6.27
2022-09-11T02:02:59.429Z,8.30
2022-09-11T02:05:29.068Z,8.77
2022-09-11T02:08:00.204Z,7.43
2022-09-11T02:10:32.119Z,6.78
2022-09-11T02:13:04.862Z,5.60
2022-09-11T02:15:38.923Z,6.77
2022-09-11T02:18:06.099Z,6.30
2022-09-11T02:20:28.727Z,6.97
2022-09-11T02:22:50.163Z,6.13
2022-09-11T02:25:11.957Z,6.65
2022-09-11T02:27:34.524Z,8.60
2022-09-11T02:29:56.030Z,12.13
2022-09-11T02:32:18.825Z,7.83
2022-09-11T02:34:42.866Z,8.55
2022-09-11T02:37:31.343Z,9.83
2022-09-11T02:40:15.825Z,10.27
2022-09-11T02:43:06.264Z,9.90
2022-09-11T02:45:41.294Z,11.47
2022-09-11T02:48:35.648Z,12.17
2022-09-11T02:51:21.764Z,9.77
2022-09-11T02:53:51.604Z,10.40
2022-09-11T02:56:25.939Z,13.03
2022-09-11T02:58:51.100Z,15.35
2022-09-11T03:01:12.932Z,12.25
2022-09-11T03:03:46.167Z,19.00
2022-09-11T03:06:15.582Z,16.90
2022-09-11T03:08:37.000Z,17.33
2022-09-11T03:10:58.404Z,20.00
2022-09-11T03:13:19.827Z,22.40
2022-09-11T03:15:45.104Z,17.45
2022-09-11T03:18:06.525Z,16.07
2022-09-11T03:20:27.928Z,21.48
2022-09-11T03:22:49.347Z,20.48
2022-09-11T03:25:11.797Z,21.40
2022-09-11T03:27:33.209Z,19.30
2022-09-11T03:29:54.771Z,19.23
2022-09-11T03:32:16.275Z,15.43
2022-09-11T03:34:37.688Z,15.87
2022-09-11T03:37:00.207Z,15.32
2022-09-11T03:39:21.682Z,14.70
2022-09-11T03:41:43.146Z,15.53
2022-09-11T03:44:04.567Z,13.70
2022-09-11T03:46:26.151Z,17.40
2022-09-11T03:48:47.566Z,14.57
2022-09-11T03:51:08.985Z,13.77
2022-09-11T03:53:32.380Z,13.70
2022-09-11T03:55:54.821Z,14.02
2022-09-11T03:58:18.712Z,12.77
2022-09-11T04:00:44.279Z,14.63
2022-09-11T04:03:05.820Z,18.70
2022-09-11T04:05:27.359Z,17.25
2022-09-11T04:07:48.939Z,15.35
2022-09-11T04:10:10.870Z,14.50
2022-09-11T04:12:32.297Z,14.32
2022-09-11T04:14:53.714Z,16.87
2022-09-11T04:17:15.111Z,16.23
2022-09-11T04:19:36.529Z,14.23
2022-09-11T04:21:57.936Z,18.80
2022-09-11T04:24:19.351Z,14.90
2022-09-11T04:26:41.027Z,15.15
2022-09-11T04:29:02.446Z,13.30
2022-09-11T04:31:23.971Z,12.45
2022-09-11T04:33:45.597Z,13.10
2022-09-11T04:36:12.991Z,13.80
2022-09-11T04:38:34.410Z,15.95
2022-09-11T04:41:00.493Z,15.48
2022-09-11T04:43:21.894Z,13.13
2022-09-11T04:45:43.344Z,14.32
2022-09-11T04:48:04.782Z,14.23
2022-09-11T04:50:26.884Z,12.77
2022-09-11T04:52:48.288Z,14.23
2022-09-11T04:55:09.891Z,16.92
2022-09-11T04:57:31.346Z,16.48
2022-09-11T04:59:52.996Z,15.30
2022-09-11T05:02:15.178Z,15.32
2022-09-11T05:04:37.316Z,16.10
2022-09-11T05:06:58.734Z,18.02
2022-09-11T05:09:20.201Z,16.55
2022-09-11T05:11:41.958Z,18.75
2022-09-11T05:14:03.713Z,17.33
2022-09-11T05:16:29.335Z,17.40
2022-09-11T05:18:52.536Z,18.98
2022-09-11T05:21:15.740Z,21.42
2022-09-11T05:23:37.154Z,19.88
2022-09-11T05:26:14.043Z,18.15
2022-09-11T05:28:35.460Z,28.95
2022-09-11T05:30:58.274Z,23.50
2022-09-11T05:33:19.706Z,25.30
2022-09-11T05:35:41.097Z,21.55
2022-09-11T05:38:02.596Z,21.58
2022-09-11T05:40:24.014Z,20.25
2022-09-11T05:42:45.442Z,19.63
2022-09-11T05:45:07.204Z,23.02
2022-09-11T05:47:28.640Z,20.90
2022-09-11T05:49:50.032Z,22.80
2022-09-11T05:52:11.467Z,23.20
2022-09-11T05:54:32.872Z,21.70
2022-09-11T05:56:55.721Z,21.00
2022-09-11T05:59:17.459Z,22.23
2022-09-11T06:01:38.951Z,23.15
2022-09-11T06:04:02.178Z,19.00
2022-09-11T06:06:24.470Z,24.13
2022-09-11T06:08:47.348Z,22.13
2022-09-11T06:11:09.133Z,20.30
2022-09-11T06:13:32.603Z,20.98
2022-09-11T06:15:53.988Z,23.48
2022-09-11T06:18:16.390Z,18.92
2022-09-11T06:20:37.794Z,21.35
2022-09-11T06:23:00.880Z,24.08
2022-09-11T06:25:22.316Z,26.70
2022-09-11T06:27:43.957Z,26.88
2022-09-11T06:30:05.763Z,22.67
2022-09-11T06:32:28.529Z,20.60
2022-09-11T06:34:50.024Z,22.50
2022-09-11T06:37:12.050Z,21.30
2022-09-11T06:39:34.282Z,21.40
2022-09-11T06:41:55.979Z,24.40
2022-09-11T06:44:17.377Z,22.90
2022-09-11T06:46:40.371Z,22.33
2022-09-11T06:49:02.248Z,22.80
2022-09-11T06:51:24.087Z,21.98
2022-09-11T06:53:47.351Z,24.55
2022-09-11T06:56:12.817Z,21.20
2022-09-11T06:58:34.224Z,21.38
2022-09-11T07:01:06.839Z,20.38
2022-09-11T07:03:28.281Z,19.58
2022-09-11T07:05:49.680Z,19.83
2022-09-11T07:08:11.137Z,20.08
2022-09-11T07:10:32.929Z,18.42
2022-09-11T07:12:55.740Z,22.30
2022-09-11T07:15:17.143Z,20.80
2022-09-11T07:17:38.558Z,18.98
2022-09-11T07:20:00.197Z,17.35
2022-09-11T07:22:22.122Z,20.88
2022-09-11T07:24:44.065Z,25.30
2022-09-11T07:27:05.610Z,19.88
2022-09-11T07:29:27.171Z,19.83
2022-09-11T07:31:49.018Z,20.15
2022-09-11T07:34:10.845Z,18.08
2022-09-11T07:36:34.384Z,18.02
2022-09-11T07:38:57.508Z,18.73
2022-09-11T07:41:21.713Z,18.52
2022-09-11T07:43:45.523Z,18.40
2022-09-11T07:46:09.910Z,18.52
2022-09-11T07:48:31.732Z,20.40
2022-09-11T07:51:02.436Z,19.08
2022-09-11T07:53:25.561Z,17.63
2022-09-11T07:55:46.956Z,18.98
2022-09-11T07:58:08.752Z,17.90
2022-09-11T08:00:33.018Z,17.85
2022-09-11T08:02:58.068Z,18.67
2022-09-11T08:05:19.654Z,17.75
2022-09-11T08:07:41.063Z,19.50
2022-09-11T08:10:26.056Z,18.85
2022-09-11T08:12:46.457Z,16.75
2022-09-11T08:15:08.301Z,15.27
2022-09-11T08:17:29.740Z,17.48
2022-09-11T08:19:51.642Z,16.58
2022-09-11T08:22:13.156Z,16.50
2022-09-11T08:24:34.884Z,17.45
2022-09-11T08:26:57.166Z,17.92
2022-09-11T08:29:18.593Z,17.58
2022-09-11T08:31:40.078Z,19.75
2022-09-11T08:34:01.727Z,17.65
2022-09-11T08:36:23.769Z,23.02
2022-09-11T08:38:46.017Z,18.98
2022-09-11T08:41:34.958Z,18.80
2022-09-11T08:44:01.570Z,18.40
2022-09-11T08:46:26.808Z,19.42
2022-09-11T08:49:01.824Z,21.25
2022-09-11T08:51:25.943Z,17.67
2022-09-11T08:53:47.878Z,19.17
2022-09-11T08:56:15.164Z,18.98
2022-09-11T08:59:04.174Z,18.20
2022-09-11T09:01:37.154Z,17.83
2022-09-11T09:04:29.827Z,18.40
2022-09-11T09:07:07.387Z,17.73
2022-09-11T09:09:42.749Z,20.27
2022-09-11T09:12:12.756Z,19.48
2022-09-11T09:15:05.944Z,19.60
2022-09-11T09:17:35.799Z,17.80
2022-09-11T09:20:02.735Z,18.88
2022-09-11T09:22:30.118Z,18.85
2022-09-11T09:25:00.283Z,17.52
2022-09-11T09:27:30.373Z,16.00
2022-09-11T09:29:57.409Z,15.93
2022-09-11T09:32:25.770Z,15.48
2022-09-11T09:34:50.966Z,15.02
2022-09-11T09:37:20.044Z,14.88
2022-09-11T09:39:41.497Z,15.43
2022-09-11T09:42:29.574Z,14.85
2022-09-11T09:44:50.932Z,15.93
2022-09-11T09:47:14.330Z,14.43
2022-09-11T09:49:37.472Z,14.95
2022-09-11T09:52:05.266Z,16.83
2022-09-11T09:54:31.011Z,15.75
2022-09-11T09:57:00.377Z,15.18
2022-09-11T09:59:37.066Z,16.55
2022-09-11T10:01:58.671Z,13.90
2022-09-11T10:04:22.749Z,11.77
2022-09-11T10:06:46.322Z,10.70
2022-09-11T10:09:21.402Z,10.80
2022-09-11T10:11:43.264Z,15.00
2022-09-11T10:14:07.861Z,9.98
2022-09-11T10:16:32.734Z,10.02
2022-09-11T10:18:55.911Z,11.10
2022-09-11T10:21:29.718Z,11.07
2022-09-11T10:24:22.472Z,10.25
2022-09-11T10:26:51.408Z,13.68
2022-09-11T10:29:26.899Z,11.10
2022-09-11T10:31:50.968Z,8.77
2022-09-11T10:34:17.444Z,8.73
2022-09-11T10:36:38.856Z,9.27
2022-09-11T10:39:01.890Z,9.32
2022-09-11T10:41:26.982Z,8.82
2022-09-11T10:44:05.981Z,10.90
2022-09-11T10:46:40.020Z,8.68
2022-09-11T10:49:18.122Z,8.40
2022-09-11T10:51:46.835Z,7.30
2022-09-11T10:54:41.223Z,8.15
2022-09-11T10:57:18.548Z,7.70
2022-09-11T10:59:46.049Z,7.53
2022-09-11T11:02:28.564Z,7.55
2022-09-11T11:04:50.168Z,7.95
2022-09-11T11:07:26.485Z,7.82
2022-09-11T11:09:57.319Z,7.95
2022-09-11T11:12:35.311Z,10.40
2022-09-11T11:15:15.780Z,8.75
2022-09-11T11:17:51.277Z,8.13
2022-09-11T11:20:27.614Z,8.00
2022-09-11T11:23:26.599Z,7.40
2022-09-11T11:26:00.559Z,7.05
2022-09-11T11:28:46.038Z,6.63
2022-09-11T11:31:42.436Z,8.02
2022-09-11T11:34:22.543Z,7.93
2022-09-11T11:36:53.354Z,9.57
2022-09-11T11:39:23.787Z,6.40
2022-09-11T11:42:12.024Z,6.90
2022-09-11T11:44:54.318Z,5.30
2022-09-11T11:47:19.175Z,5.55
2022-09-11T11:49:48.966Z,4.43
2022-09-11T11:52:43.056Z,6.18
2022-09-11T11:55:15.000Z,4.38
2022-09-11T11:57:41.630Z,4.80
2022-09-11T12:00:13.268Z,4.65
2022-09-11T12:02:58.145Z,4.07
2022-09-11T12:05:26.749Z,4.07
2022-09-11T12:07:48.347Z,4.53
2022-09-11T12:10:22.368Z,4.07
2022-09-11T12:12:52.326Z,4.10
2022-09-11T12:15:22.870Z,5.88
2022-09-11T12:17:46.028Z,4.95
2022-09-11T12:20:13.489Z,4.93
2022-09-11T12:22:41.323Z,4.68
2022-09-11T12:25:03.365Z,5.22
2022-09-11T12:27:34.298Z,5.13
2022-09-11T12:30:07.332Z,5.50
2022-09-11T12:32:41.989Z,4.70
2022-09-11T12:35:15.878Z,4.60
2022-09-11T12:37:38.697Z,5.20
2022-09-11T12:40:24.795Z,4.00
2022-09-11T12:42:55.082Z,5.32
2022-09-11T12:45:38.415Z,4.45
2022-09-11T12:48:06.941Z,6.65
2022-09-11T12:50:28.718Z,4.07
2022-09-11T12:53:02.107Z,4.65
2022-09-11T12:55:43.388Z,7.07
2022-09-11T12:58:08.528Z,4.47
2022-09-11T13:00:38.263Z,4.65
2022-09-11T13:03:00.153Z,5.90
2022-09-11T13:05:36.428Z,4.22
2022-09-11T13:08:04.286Z,3.97
2022-09-11T13:10:35.267Z,4.00
2022-09-11T13:12:58.708Z,6.15
2022-09-11T13:15:43.315Z,3.40
2022-09-11T13:18:37.674Z,4.85
2022-09-11T13:21:13.429Z,3.78
2022-09-11T13:23:34.837Z,3.15
2022-09-11T13:25:58.178Z,4.75
2022-09-11T13:28:24.322Z,3.47
2022-09-11T13:30:54.491Z,3.22
2022-09-11T13:33:21.651Z,3.55
2022-09-11T13:35:46.359Z,3.75
2022-09-11T13:38:11.014Z,3.60
2022-09-11T13:40:38.918Z,3.60
2022-09-11T13:43:01.897Z,3.03
2022-09-11T13:45:24.171Z,3.45
2022-09-11T13:47:45.778Z,5.03
2022-09-11T13:50:12.882Z,3.95
2022-09-11T13:52:35.670Z,4.07
2022-09-11T13:54:59.853Z,3.10
2022-09-11T13:57:23.918Z,2.95
2022-09-11T13:59:54.953Z,3.10
2022-09-11T14:02:38.207Z,2.80
2022-09-11T14:05:27.129Z,3.45
2022-09-11T14:07:52.224Z,3.17
2022-09-11T14:10:25.320Z,3.38
2022-09-11T14:13:23.131Z,2.92
2022-09-11T14:15:49.815Z,2.92
2022-09-11T14:18:25.957Z,4.75
2022-09-11T14:20:47.605Z,2.90
2022-09-11T14:23:24.191Z,3.05
2022-09-11T14:26:05.694Z,3.35
2022-09-11T14:28:41.738Z,4.00
2022-09-11T14:31:14.468Z,3.83
2022-09-11T14:33:35.998Z,3.60
2022-09-11T14:36:07.617Z,2.65
2022-09-11T14:38:29.467Z,4.45
2022-09-11T14:41:01.198Z,3.50
2022-09-11T14:43:26.858Z,3.20
2022-09-11T14:45:50.118Z,3.90
2022-09-11T14:48:14.314Z,3.13
2022-09-11T14:50:37.467Z,3.65
2022-09-11T14:52:59.813Z,4.55
2022-09-11T14:55:21.206Z,6.22
2022-09-11T14:57:42.688Z,3.25
2022-09-11T15:00:04.675Z,3.42
2022-09-11T15:02:28.772Z,3.65
2022-09-11T15:04:51.849Z,3.28
2022-09-11T15:07:15.529Z,3.33
2022-09-11T15:09:38.235Z,3.70
2022-09-11T15:11:59.701Z,4.20
2022-09-11T15:14:44.658Z,3.22
2022-09-11T15:17:05.656Z,5.80
2022-09-11T15:19:27.543Z,7.28
2022-09-11T15:21:49.053Z,3.63
2022-09-11T15:24:10.448Z,3.58
2022-09-11T15:26:37.240Z,2.90
2022-09-11T15:28:58.696Z,3.47
2022-09-11T15:31:20.251Z,4.20
2022-09-11T15:33:50.091Z,3.10
2022-09-11T15:36:11.972Z,2.70
2022-09-11T15:38:33.453Z,3.10
2022-09-11T15:40:56.712Z,3.17
2022-09-11T15:43:19.114Z,4.18
2022-09-11T15:45:43.032Z,3.78
2022-09-11T15:48:04.579Z,3.13
2022-09-11T15:50:30.002Z,2.55
2022-09-11T15:52:51.426Z,2.75
2022-09-11T15:55:13.438Z,2.63
2022-09-11T15:57:35.917Z,2.50
2022-09-11T15:59:57.334Z,3.25
2022-09-11T16:02:20.794Z,2.42
2022-09-11T16:04:42.297Z,2.72
2022-09-11T16:07:04.538Z,4.15
2022-09-11T16:09:29.245Z,2.40
2022-09-11T16:11:51.869Z,4.60
2022-09-11T16:14:19.930Z,3.17
2022-09-11T16:16:41.343Z,4.53
2022-09-11T16:19:03.810Z,3.47
2022-09-11T16:21:27.121Z,3.78
2022-09-11T16:23:53.556Z,3.78
2022-09-11T16:26:18.986Z,5.90
2022-09-11T16:28:40.861Z,3.05
2022-09-11T16:31:03.211Z,3.17
2022-09-11T16:33:24.733Z,3.83
2022-09-11T16:35:57.221Z,3.80
2022-09-11T16:38:18.645Z,4.40
2022-09-11T16:40:40.053Z,4.85
2022-09-11T16:43:03.312Z,4.97
2022-09-11T16:45:24.823Z,3.53
2022-09-11T16:47:46.730Z,3.50
2022-09-11T16:50:08.746Z,3.25
2022-09-11T16:52:30.339Z,3.50
2022-09-11T16:54:52.269Z,5.53
2022-09-11T16:57:13.699Z,3.40
2022-09-11T16:59:35.199Z,4.13
2022-09-11T17:01:57.381Z,3.35
2022-09-11T17:04:18.802Z,5.50
2022-09-11T17:06:40.257Z,4.43
2022-09-11T17:09:03.975Z,3.63
2022-09-11T17:11:26.942Z,4.55
2022-09-11T17:13:49.154Z,4.25
2022-09-11T17:16:16.777Z,4.47
2022-09-11T17:18:39.292Z,3.92
2022-09-11T17:21:09.754Z,3.88
2022-09-11T17:23:32.448Z,4.38
2022-09-11T17:25:53.867Z,4.68
2022-09-11T17:28:15.244Z,4.78
2022-09-11T17:30:39.517Z,5.30
2022-09-11T17:33:00.902Z,4.72
2022-09-11T17:35:22.299Z,4.43
2022-09-11T17:37:45.264Z,3.80
2022-09-11T17:40:07.679Z,4.00
2022-09-11T17:42:30.275Z,5.43
2022-09-11T17:44:52.589Z,4.88
2022-09-11T17:47:14.132Z,4.18
2022-09-11T17:49:35.524Z,4.28
2022-09-11T17:51:58.078Z,4.32
2022-09-11T17:54:19.477Z,4.22
2022-09-11T17:56:42.379Z,4.88
2022-09-11T17:59:03.832Z,4.07
2022-09-11T18:01:27.135Z,5.88
2022-09-11T18:03:53.504Z,5.13
2022-09-11T18:06:19.279Z,6.47
2022-09-11T18:08:40.766Z,5.30
2022-09-11T18:11:02.359Z,4.63
2022-09-11T18:13:23.813Z,4.63
2022-09-11T18:15:45.230Z,5.30
2022-09-11T18:18:06.633Z,7.13
2022-09-11T18:20:28.217Z,7.40
2022-09-11T18:22:50.287Z,6.13
2022-09-11T18:25:11.783Z,5.80
2022-09-11T18:27:33.190Z,5.22
2022-09-11T18:29:55.013Z,5.93
2022-09-11T18:32:16.452Z,4.30
2022-09-11T18:34:38.348Z,7.00
2022-09-11T18:37:00.559Z,6.53
2022-09-11T18:39:22.147Z,7.00
2022-09-11T18:41:44.916Z,4.35
2022-09-11T18:44:17.409Z,4.95
2022-09-11T18:46:41.674Z,5.70
2022-09-11T18:49:04.113Z,35.63
2022-09-11T18:51:29.867Z,25.70
2022-09-11T18:53:51.962Z,40.22
2022-09-11T18:56:13.484Z,25.45
2022-09-11T18:58:37.476Z,20.65
2022-09-11T19:01:00.534Z,14.65
2022-09-11T19:03:22.697Z,8.10
2022-09-11T19:05:44.107Z,6.57
2022-09-11T19:08:05.501Z,10.65
2022-09-11T19:10:27.261Z,6.00
2022-09-11T19:12:48.695Z,11.07
2022-09-11T19:15:10.870Z,5.90
2022-09-11T19:17:32.771Z,7.03
2022-09-11T19:19:54.437Z,5.97
2022-09-11T19:22:15.834Z,8.52
2022-09-11T19:24:38.220Z,4.95
2022-09-11T19:27:00.249Z,4.80
2022-09-11T19:29:22.627Z,7.82
2022-09-11T19:31:44.064Z,6.10
2022-09-11T19:34:06.309Z,7.17
2022-09-11T19:36:30.258Z,4.40
2022-09-11T19:38:55.085Z,5.23
2022-09-11T19:41:20.414Z,4.00
2022-09-11T19:43:42.910Z,4.13
2022-09-11T19:46:10.837Z,5.97
2022-09-11T19:48:34.098Z,6.20
2022-09-11T19:50:55.520Z,4.90
2022-09-11T19:53:17.060Z,6.10
2022-09-11T19:55:38.658Z,4.20
2022-09-11T19:58:00.547Z,4.90
2022-09-11T20:00:22.816Z,6.37
2022-09-11T20:02:45.279Z,4.70
2022-09-11T20:05:07.189Z,6.67
2022-09-11T20:07:28.624Z,5.27
2022-09-11T20:09:50.170Z,5.70
2022-09-11T20:12:11.565Z,4.97
2022-09-11T20:14:32.999Z,7.07
2022-09-11T20:16:54.456Z,5.57
2022-09-11T20:19:17.231Z,4.73
2022-09-11T20:21:38.695Z,6.57
2022-09-11T20:24:00.521Z,9.00
2022-09-11T20:26:27.828Z,7.57
2022-09-11T20:28:56.780Z,7.97
2022-09-11T20:31:23.640Z,4.27
2022-09-11T20:33:46.155Z,5.33
2022-09-11T20:36:07.723Z,5.70
2022-09-11T20:38:29.135Z,5.43
2022-09-11T20:40:50.547Z,9.37
2022-09-11T20:43:12.488Z,5.53
2022-09-11T20:45:34.971Z,5.47
2022-09-11T20:47:56.383Z,7.03
2022-09-11T20:50:18.211Z,6.90
2022-09-11T20:52:41.046Z,6.77
2022-09-11T20:55:02.485Z,5.43
2022-09-11T20:57:23.949Z,11.40
2022-09-11T20:59:45.534Z,4.37
2022-09-11T21:02:06.965Z,5.03
2022-09-11T21:04:28.435Z,4.90
2022-09-11T21:06:50.544Z,5.73
2022-09-11T21:09:12.101Z,5.87
2022-09-11T21:11:35.069Z,4.90
2022-09-11T21:13:56.837Z,6.70
2022-09-11T21:16:19.854Z,7.27
2022-09-11T21:18:46.582Z,6.40
2022-09-11T21:21:08.059Z,6.93
2022-09-11T21:23:29.881Z,6.77
2022-09-11T21:25:52.770Z,5.90
2022-09-11T21:28:14.677Z,6.93
2022-09-11T21:30:38.476Z,5.27
2022-09-11T21:32:59.897Z,5.33
2022-09-11T21:35:21.382Z,6.67
2022-09-11T21:37:42.769Z,4.93
2022-09-11T21:40:05.056Z,5.47
2022-09-11T21:42:26.548Z,6.03
2022-09-11T21:44:48.013Z,6.80
2022-09-11T21:47:09.410Z,4.77
2022-09-11T21:49:30.819Z,4.87
2022-09-11T21:51:52.240Z,6.07
2022-09-11T21:54:13.654Z,8.90
2022-09-11T21:56:35.068Z,6.13
2022-09-11T21:58:56.914Z,6.67
2022-09-11T22:01:19.998Z,8.33
2022-09-11T22:03:41.496Z,10.03
2022-09-11T22:06:08.095Z,5.27
2022-09-11T22:08:29.531Z,6.37
2022-09-11T22:10:51.866Z,5.97
2022-09-11T22:13:13.385Z,6.60
2022-09-11T22:15:34.793Z,5.77
2022-09-11T22:17:56.428Z,6.20
2022-09-11T22:20:18.025Z,6.13
2022-09-11T22:22:40.649Z,5.37
2022-09-11T22:25:02.043Z,5.67
2022-09-11T22:27:23.479Z,7.77
2022-09-11T22:29:47.043Z,6.50
2022-09-11T22:32:08.588Z,6.30
2022-09-11T22:34:32.958Z,5.30
2022-09-11T22:36:54.404Z,9.17
2022-09-11T22:39:15.964Z,7.77
2022-09-11T22:41:37.372Z,6.43
2022-09-11T22:43:58.833Z,8.23
2022-09-11T22:46:21.577Z,7.30
2022-09-11T22:48:43.886Z,5.63
2022-09-11T22:51:05.568Z,5.20
2022-09-11T22:53:28.648Z,5.60
2022-09-11T22:55:50.486Z,5.20
2022-09-11T22:58:12.820Z,5.40
2022-09-11T23:00:34.508Z,5.63
2022-09-11T23:02:55.931Z,5.90
2022-09-11T23:05:36.023Z,7.60
2022-09-11T23:07:57.445Z,5.77
2022-09-11T23:10:23.659Z,6.23
2022-09-11T23:12:45.501Z,5.47
2022-09-11T23:15:07.683Z,5.80
2022-09-11T23:17:29.113Z,7.43
2022-09-11T23:19:50.521Z,6.23
2022-09-11T23:22:11.929Z,6.63
2022-09-11T23:24:33.344Z,6.30
2022-09-11T23:26:54.773Z,8.60
2022-09-11T23:29:16.188Z,7.27
2022-09-11T23:31:37.762Z,5.70
2022-09-11T23:34:04.307Z,6.50
2022-09-11T23:36:26.607Z,6.70
2022-09-11T23:38:49.066Z,6.50
2022-09-11T23:41:10.585Z,8.30
2022-09-11T23:43:32.014Z,6.50
2022-09-11T23:45:53.430Z,6.60
2022-09-11T23:48:14.894Z,5.47
2022-09-11T23:50:36.512Z,7.87
2022-09-11T23:52:57.915Z,6.83
2022-09-11T23:55:19.394Z,6.40
2022-09-11T23:57:40.839Z,5.53
